Time;durP1;ratioP1;P1;durP2;ratioP2;P2;SDS_P1;SDS_P2;PMS_P1;PMS_P2;Temp;Humidity;BMP_temperature;BMP_pressure;BME280_temperature;BME280_humidity;BME280_pressure;Samples;Min_cycle;Max_cycle;Signal;HPM_P1;HPM_P2
2021/06/22 00:01:55;;;;;;;7.97;4.87;;;;;;;16.23;65.69;101190.94;6224346;28;20603;-56
2021/06/22 00:05:18;;;;;;;7.43;5.20;;;;;;;16.00;67.19;101193.31;6221637;28;20537;-53
2021/06/22 00:08:39;;;;;;;7.90;5.13;;;;;;;16.09;66.51;101179.94;6213947;28;20225;-53
2021/06/22 00:12:00;;;;;;;8.77;5.53;;;;;;;16.05;66.46;101180.91;6213352;28;20228;-53
2021/06/22 00:15:24;;;;;;;9.17;5.77;;;;;;;15.91;66.14;101190.00;6204067;28;20257;-54
2021/06/22 00:18:44;;;;;;;7.93;5.07;;;;;;;15.96;66.20;101192.53;6239722;28;20236;-52
2021/06/22 00:22:07;;;;;;;8.53;5.80;;;;;;;15.78;67.09;101193.88;6235250;28;20512;-54
2021/06/22 00:25:28;;;;;;;9.90;5.53;;;;;;;15.73;67.44;101216.75;6238097;28;20307;-52
2021/06/22 00:28:50;;;;;;;11.03;5.13;;;;;;;15.65;67.00;101230.00;6235763;28;20255;-55
2021/06/22 00:32:11;;;;;;;11.97;5.30;;;;;;;15.78;66.62;101237.63;6238169;28;20228;-52
2021/06/22 00:35:32;;;;;;;7.90;5.33;;;;;;;15.88;66.43;101239.16;6235399;28;20224;-51
2021/06/22 00:38:55;;;;;;;7.93;4.33;;;;;;;15.84;67.20;101219.09;6232994;28;20241;-52
2021/06/22 00:42:16;;;;;;;10.47;4.63;;;;;;;15.94;66.84;101239.84;6206209;28;20332;-54
2021/06/22 00:45:37;;;;;;;9.30;5.77;;;;;;;15.73;67.24;101251.72;6223337;28;20237;-55
2021/06/22 00:49:02;;;;;;;5.80;4.90;;;;;;;15.80;67.02;101262.97;6212003;28;20233;-55
2021/06/22 00:52:25;;;;;;;9.83;5.50;;;;;;;15.90;66.38;101259.22;6220459;28;20227;-51
2021/06/22 00:55:48;;;;;;;7.63;4.63;;;;;;;16.01;65.96;101255.44;6222462;28;20986;-54
2021/06/22 00:59:10;;;;;;;6.70;4.83;;;;;;;16.13;66.07;101256.00;6221512;28;20328;-51
2021/06/22 01:02:31;;;;;;;10.20;5.03;;;;;;;16.03;66.17;101241.41;6218290;28;20498;-52
2021/06/22 01:05:52;;;;;;;13.97;5.63;;;;;;;15.85;66.97;101234.81;6213285;28;20233;-55
2021/06/22 01:09:15;;;;;;;6.70;5.13;;;;;;;15.96;67.53;101246.84;6231722;28;20248;-53
2021/06/22 01:12:37;;;;;;;8.40;4.57;;;;;;;15.89;67.41;101240.84;6229315;28;20225;-55
2021/06/22 01:15:58;;;;;;;11.47;6.10;;;;;;;16.06;66.60;101240.44;6219549;28;20245;-53
2021/06/22 01:19:20;;;;;;;11.53;5.70;;;;;;;15.87;67.10;101254.00;6212326;28;20221;-54
2021/06/22 01:22:51;;;;;;;11.17;6.17;;;;;;;15.70;68.03;101250.91;6223236;28;20233;-54
2021/06/22 01:26:12;;;;;;;10.07;5.90;;;;;;;15.61;68.97;101253.75;6210450;28;20356;-56
2021/06/22 01:29:34;;;;;;;12.73;6.43;;;;;;;15.58;68.39;101245.94;6210036;28;20225;-53
2021/06/22 01:32:56;;;;;;;8.60;5.10;;;;;;;15.56;68.75;101245.97;6216512;28;20227;-53
2021/06/22 01:36:19;;;;;;;10.37;5.47;;;;;;;15.55;68.70;101236.38;6209717;28;20233;-55
2021/06/22 01:39:42;;;;;;;13.67;5.67;;;;;;;15.58;68.31;101236.28;6230645;28;20252;-52
2021/06/22 01:43:04;;;;;;;7.30;5.60;;;;;;;15.59;68.93;101237.19;6243254;28;20225;-50
2021/06/22 01:46:26;;;;;;;9.53;5.50;;;;;;;15.78;67.93;101221.88;6219641;28;20638;-50
2021/06/22 01:49:47;;;;;;;9.07;5.07;;;;;;;15.68;68.39;101231.69;6225437;28;20267;-53
2021/06/22 01:53:08;;;;;;;11.20;5.57;;;;;;;15.44;68.40;101239.25;6204707;28;20244;-53
2021/06/22 01:56:33;;;;;;;7.90;5.33;;;;;;;15.52;68.28;101236.44;6211008;28;20233;-50
2021/06/22 01:59:54;;;;;;;11.07;6.67;;;;;;;15.70;67.60;101243.03;6218627;28;20229;-52
2021/06/22 02:03:26;;;;;;;8.37;4.77;;;;;;;15.70;67.19;101264.03;6209438;28;20230;-54
2021/06/22 02:06:49;;;;;;;8.23;5.03;;;;;;;15.65;67.66;101274.63;6207797;28;20254;-55
2021/06/22 02:10:39;;;;;;;14.70;6.30;;;;;;;15.60;67.61;101294.03;6216746;28;20241;-54
2021/06/22 02:14:05;;;;;;;10.10;6.00;;;;;;;15.54;68.05;101293.25;6221766;28;20229;-55
2021/06/22 02:17:27;;;;;;;7.80;4.47;;;;;;;15.82;68.02;101302.28;6212296;28;20225;-55
2021/06/22 02:20:48;;;;;;;6.87;5.03;;;;;;;15.97;67.04;101306.34;6204856;28;20336;-53
2021/06/22 02:24:12;;;;;;;9.83;4.93;;;;;;;15.94;66.79;101296.78;6206105;28;20229;-52
2021/06/22 02:27:34;;;;;;;11.43;5.27;;;;;;;15.82;67.08;101308.44;6209608;28;20225;-55
2021/06/22 02:30:58;;;;;;;7.73;4.87;;;;;;;15.72;67.84;101304.22;6209362;28;20315;-55
2021/06/22 02:34:20;;;;;;;8.43;5.17;;;;;;;16.03;66.58;101306.19;6201447;28;20260;-52
2021/06/22 02:37:43;;;;;;;6.43;4.63;;;;;;;15.82;66.96;101297.94;6220457;28;20765;-56
2021/06/22 02:41:05;;;;;;;9.30;4.70;;;;;;;16.01;66.60;101292.22;6211266;28;20613;-51
2021/06/22 02:44:28;;;;;;;12.20;5.20;;;;;;;15.94;66.61;101307.28;6230770;28;20230;-52
2021/06/22 02:47:55;;;;;;;7.37;4.63;;;;;;;15.96;66.74;101296.75;6215553;28;20253;-50
2021/06/22 02:51:19;;;;;;;9.07;4.57;;;;;;;15.89;66.26;101288.97;6211494;28;20236;-53
2021/06/22 02:54:41;;;;;;;11.97;5.10;;;;;;;15.90;66.68;101282.84;6209976;28;20233;-53
2021/06/22 02:58:02;;;;;;;7.73;5.50;;;;;;;15.92;66.45;101283.66;6210858;28;20522;-50
2021/06/22 03:01:23;;;;;;;10.03;5.43;;;;;;;16.01;65.98;101276.47;6211050;28;20233;-54
2021/06/22 03:04:46;;;;;;;9.63;5.20;;;;;;;15.81;67.08;101283.06;6220941;28;20237;-52
2021/06/22 03:08:08;;;;;;;8.03;4.70;;;;;;;16.04;66.17;101263.25;6227164;28;20240;-51
2021/06/22 03:11:32;;;;;;;11.70;5.00;;;;;;;16.02;65.92;101265.06;6217102;28;20312;-53
2021/06/22 03:14:56;;;;;;;8.63;4.80;;;;;;;15.86;66.25;101278.56;6219167;28;20249;-50
2021/06/22 03:18:25;;;;;;;8.43;4.33;;;;;;;15.94;66.17;101295.00;6231665;28;20251;-54
2021/06/22 03:21:49;;;;;;;8.53;4.30;;;;;;;15.86;66.81;101307.47;6208030;28;20257;-50
2021/06/22 03:25:12;;;;;;;12.20;5.70;;;;;;;15.87;66.85;101322.28;6218012;28;20312;-54
2021/06/22 03:28:39;;;;;;;7.93;4.40;;;;;;;16.01;66.20;101315.88;6220317;28;20268;-54
2021/06/22 03:32:20;;;;;;;7.10;4.63;;;;;;;16.04;65.60;101323.69;6219192;28;20237;-55
2021/06/22 03:35:41;;;;;;;8.67;4.87;;;;;;;16.10;65.48;101334.03;6214274;28;20588;-50
2021/06/22 03:39:04;;;;;;;8.40;4.93;;;;;;;16.16;64.89;101354.06;6226186;28;20610;-54
2021/06/22 03:42:25;;;;;;;10.27;5.23;;;;;;;15.96;65.97;101362.41;6236138;28;20255;-55
2021/06/22 03:45:50;;;;;;;11.73;5.67;;;;;;;15.66;65.92;101370.88;6235289;28;20515;-52
2021/06/22 03:49:11;;;;;;;11.13;4.77;;;;;;;16.05;65.20;101377.94;6239744;28;20225;-55
2021/06/22 03:52:32;;;;;;;9.97;6.00;;;;;;;15.60;66.32;101385.91;6231301;28;20626;-55
2021/06/22 03:55:55;;;;;;;11.93;8.27;;;;;;;15.79;65.59;101373.28;6239770;28;20232;-53
2021/06/22 03:59:55;;;;;;;10.53;7.70;;;;;;;15.82;65.88;101354.81;6216720;28;20237;-54
2021/06/22 04:03:16;;;;;;;17.23;12.27;;;;;;;16.04;65.63;101342.94;6197731;28;20237;-55
2021/06/22 04:06:48;;;;;;;13.33;8.20;;;;;;;16.16;64.47;101346.16;6227797;28;20236;-52
2021/06/22 04:10:11;;;;;;;10.10;6.23;;;;;;;16.19;64.51;101331.19;6217698;28;20654;-55
2021/06/22 04:13:38;;;;;;;11.30;6.40;;;;;;;16.33;63.74;101318.56;6218906;28;20233;-52
2021/06/22 04:17:02;;;;;;;13.97;6.83;;;;;;;16.26;63.95;101326.66;6224027;28;20615;-54
2021/06/22 04:20:23;;;;;;;9.27;4.60;;;;;;;16.30;63.97;101334.44;6223787;28;20504;-54
2021/06/22 04:23:44;;;;;;;11.70;6.33;;;;;;;16.24;64.50;101333.72;6219972;28;20876;-54
2021/06/22 04:27:08;;;;;;;8.90;5.20;;;;;;;16.03;64.59;101335.06;6215029;28;20249;-51
2021/06/22 04:30:33;;;;;;;12.87;9.73;;;;;;;16.24;64.67;101337.19;6209354;28;20225;-52
2021/06/22 04:33:54;;;;;;;12.20;8.00;;;;;;;16.42;63.79;101335.91;6228811;28;20236;-53
2021/06/22 04:37:15;;;;;;;10.47;7.63;;;;;;;16.12;65.27;101335.72;6212740;28;20237;-54
2021/06/22 04:40:38;;;;;;;9.23;6.07;;;;;;;16.24;64.83;101336.34;6220522;28;20232;-54
2021/06/22 04:43:59;;;;;;;7.67;4.83;;;;;;;16.21;64.55;101329.41;6225971;28;20233;-54
2021/06/22 04:47:21;;;;;;;9.90;5.63;;;;;;;16.11;65.27;101335.75;6208374;28;20241;-54
2021/06/22 04:50:42;;;;;;;10.53;5.07;;;;;;;15.87;65.45;101332.81;6212523;28;20228;-53
2021/06/22 04:54:03;;;;;;;7.20;4.50;;;;;;;15.90;65.37;101345.88;6211927;28;20229;-49
2021/06/22 04:57:24;;;;;;;4.90;4.20;;;;;;;15.95;64.42;101335.25;6204658;28;20241;-52
2021/06/22 05:00:45;;;;;;;8.10;3.87;;;;;;;16.08;64.64;101338.47;6219901;28;20696;-54
2021/06/22 05:04:08;;;;;;;7.40;4.37;;;;;;;16.29;64.22;101327.44;6214608;28;20275;-56
2021/06/22 05:07:29;;;;;;;6.70;4.77;;;;;;;16.20;64.40;101325.03;6228640;28;20233;-52
2021/06/22 05:10:50;;;;;;;15.40;4.50;;;;;;;16.01;64.47;101335.09;6214513;28;20243;-55
2021/06/22 05:14:10;;;;;;;5.83;4.67;;;;;;;15.74;65.04;101339.22;6216710;28;20253;-56
2021/06/22 05:17:31;;;;;;;10.83;4.43;;;;;;;15.97;64.75;101343.09;6217466;28;20225;-55
2021/06/22 05:20:54;;;;;;;8.37;5.37;;;;;;;16.20;64.04;101351.31;6211160;28;20225;-56
2021/06/22 05:24:16;;;;;;;9.40;4.70;;;;;;;16.14;63.82;101365.44;6210012;28;20241;-54
2021/06/22 05:27:37;;;;;;;11.27;4.67;;;;;;;16.41;62.82;101380.59;6212833;28;20619;-56
2021/06/22 05:30:58;;;;;;;8.20;3.40;;;;;;;16.08;63.18;101380.50;6230187;28;20237;-56
2021/06/22 05:34:18;;;;;;;9.60;4.43;;;;;;;16.39;62.17;101375.38;6212476;28;20558;-54
2021/06/22 05:37:41;;;;;;;8.20;4.47;;;;;;;16.46;61.70;101376.97;6219656;28;20304;-53
2021/06/22 05:41:02;;;;;;;7.10;4.57;;;;;;;16.89;61.50;101385.56;6206403;28;20237;-58
2021/06/22 05:44:23;;;;;;;8.70;3.70;;;;;;;17.31;59.12;101382.66;6212455;28;20228;-59
2021/06/22 05:47:44;;;;;;;8.97;3.57;;;;;;;16.84;60.23;101380.41;6212230;28;20252;-60
2021/06/22 05:51:05;;;;;;;7.70;3.73;;;;;;;17.21;60.05;101379.41;6215201;28;20324;-60
2021/06/22 05:54:27;;;;;;;10.63;3.80;;;;;;;17.10;59.89;101389.41;6218101;28;20241;-59
2021/06/22 05:57:50;;;;;;;9.57;3.83;;;;;;;17.14;59.33;101404.19;6210770;28;20241;-57
2021/06/22 06:01:11;;;;;;;8.67;4.60;;;;;;;17.35;58.19;101393.97;6221397;28;20232;-61
2021/06/22 06:04:32;;;;;;;6.93;4.37;;;;;;;17.25;59.28;101390.72;6219457;28;20233;-58
2021/06/22 06:07:54;;;;;;;8.23;3.87;;;;;;;17.62;59.05;101385.28;6213729;28;20777;-57
2021/06/22 06:11:16;;;;;;;9.07;4.37;;;;;;;17.99;58.22;101402.66;6216540;28;20233;-61
2021/06/22 06:14:38;;;;;;;6.73;4.57;;;;;;;18.40;55.51;101405.75;6218762;28;20220;-59
2021/06/22 06:17:59;;;;;;;11.07;6.53;;;;;;;18.61;55.25;101401.56;6216995;28;20622;-61
2021/06/22 06:21:22;;;;;;;9.30;3.90;;;;;;;18.61;55.67;101406.84;6218868;28;20661;-60
2021/06/22 06:24:44;;;;;;;9.77;6.40;;;;;;;18.18;55.02;101405.56;6212838;28;20240;-61
2021/06/22 06:28:14;;;;;;;14.00;6.60;;;;;;;19.08;53.68;101409.66;6238601;28;20248;-60
2021/06/22 06:31:35;;;;;;;5.88;4.35;;;;;;;19.25;52.53;101408.16;6231244;28;20270;-50
2021/06/22 06:34:56;;;;;;;11.30;4.60;;;;;;;19.30;51.30;101411.50;6220752;28;20233;-51
2021/06/22 06:38:17;;;;;;;10.80;4.13;;;;;;;19.02;52.11;101417.78;6214209;28;20237;-53
2021/06/22 06:41:38;;;;;;;7.63;4.10;;;;;;;19.08;51.88;101422.84;6221943;28;20229;-49
2021/06/22 06:45:00;;;;;;;6.15;3.08;;;;;;;18.95;51.42;101416.25;6210480;28;20225;-53
2021/06/22 06:48:23;;;;;;;6.00;2.70;;;;;;;19.13;50.11;101427.09;6202004;28;20613;-50
2021/06/22 06:51:44;;;;;;;5.78;3.95;;;;;;;19.63;48.71;101432.31;6235950;28;20315;-53
2021/06/22 06:55:24;;;;;;;8.85;3.95;;;;;;;18.44;49.88;101448.72;6240599;28;20232;-56
2021/06/22 06:58:45;;;;;;;7.35;2.97;;;;;;;18.11;51.77;101454.13;6231972;28;20256;-52
2021/06/22 07:02:08;;;;;;;5.55;3.53;;;;;;;18.19;52.18;101462.66;6215452;28;20536;-53
2021/06/22 07:05:30;;;;;;;6.70;3.25;;;;;;;18.37;51.27;101457.72;6218835;28;20228;-50
2021/06/22 07:08:51;;;;;;;5.45;3.55;;;;;;;18.93;51.00;101449.75;6239979;28;20606;-50
2021/06/22 07:12:12;;;;;;;10.07;3.65;;;;;;;18.94;50.14;101447.97;6241014;28;20504;-54
2021/06/22 07:15:33;;;;;;;4.13;2.88;;;;;;;19.17;50.82;101449.81;6217486;28;20229;-50
2021/06/22 07:18:56;;;;;;;6.68;3.72;;;;;;;18.84;50.14;101444.78;6227093;28;20680;-49
2021/06/22 07:22:17;;;;;;;6.00;3.65;;;;;;;19.08;50.62;101449.25;6212378;28;20880;-55
2021/06/22 07:25:38;;;;;;;6.35;2.75;;;;;;;19.28;49.29;101459.09;6217439;28;20217;-50
2021/06/22 07:28:59;;;;;;;8.82;5.70;;;;;;;19.42;48.62;101466.53;6219810;28;20237;-52
2021/06/22 07:32:20;;;;;;;10.20;8.88;;;;;;;19.35;48.79;101458.88;6214760;28;20340;-53
2021/06/22 07:35:43;;;;;;;5.75;3.45;;;;;;;18.93;50.51;101462.09;6219550;28;20225;-55
2021/06/22 07:39:05;;;;;;;9.32;4.40;;;;;;;19.10;48.94;101464.19;6220267;28;20229;-54
2021/06/22 07:42:26;;;;;;;8.82;4.72;;;;;;;19.62;48.29;101462.31;6199474;28;20247;-50
2021/06/22 07:45:47;;;;;;;6.82;3.20;;;;;;;19.92;48.18;101459.47;6215030;28;20232;-51
2021/06/22 07:49:07;;;;;;;5.60;3.00;;;;;;;20.26;47.39;101457.25;6220673;28;20233;-53
2021/06/22 07:52:29;;;;;;;10.63;3.42;;;;;;;19.76;46.17;101460.06;6225255;28;20229;-53
2021/06/22 07:55:51;;;;;;;9.07;4.10;;;;;;;20.40;46.43;101463.78;6215028;28;20650;-55
2021/06/22 07:59:11;;;;;;;5.63;4.15;;;;;;;20.47;45.10;101462.59;6237511;28;20345;-49
2021/06/22 08:02:32;;;;;;;7.53;3.45;;;;;;;19.71;47.25;101467.25;6236843;28;20293;-54
2021/06/22 08:05:55;;;;;;;7.70;3.70;;;;;;;19.23;48.71;101468.97;6237060;28;20236;-54
2021/06/22 08:09:17;;;;;;;5.68;3.00;;;;;;;19.46;48.21;101473.44;6233891;28;21005;-49
2021/06/22 08:12:38;;;;;;;9.77;3.53;;;;;;;19.84;46.70;101468.56;6235637;28;20227;-55
2021/06/22 08:16:01;;;;;;;5.00;2.90;;;;;;;19.97;47.05;101461.03;6240706;28;20232;-53
2021/06/22 08:19:22;;;;;;;6.38;3.00;;;;;;;20.57;45.49;101479.84;6242562;28;20267;-53
2021/06/22 08:22:44;;;;;;;5.70;3.33;;;;;;;20.96;43.94;101465.91;6232516;28;20303;-50
2021/06/22 08:26:06;;;;;;;6.22;2.97;;;;;;;21.03;43.47;101474.44;6235234;28;20862;-52
2021/06/22 08:29:27;;;;;;;6.30;3.00;;;;;;;20.65;44.37;101472.47;6211605;28;20229;-52
2021/06/22 08:32:48;;;;;;;6.35;3.53;;;;;;;20.60;44.33;101471.78;6218104;28;20619;-51
2021/06/22 08:36:09;;;;;;;5.47;3.15;;;;;;;20.24;45.87;101477.63;6215318;28;20233;-51
2021/06/22 08:39:29;;;;;;;6.50;3.58;;;;;;;20.03;45.50;101483.72;6203044;28;20233;-54
2021/06/22 08:42:52;;;;;;;5.90;3.60;;;;;;;19.04;47.39;101487.22;6211728;28;20237;-53
2021/06/22 08:46:13;;;;;;;8.73;3.80;;;;;;;19.05;46.83;101494.22;6223594;28;20233;-56
2021/06/22 08:49:34;;;;;;;8.00;4.32;;;;;;;19.24;47.55;101489.16;6220516;28;20229;-54
2021/06/22 08:52:55;;;;;;;7.13;3.45;;;;;;;19.68;47.22;101483.22;6207867;28;20229;-52
2021/06/22 08:56:16;;;;;;;4.85;2.97;;;;;;;20.08;46.32;101476.47;6210754;28;20232;-47
2021/06/22 08:59:41;;;;;;;7.72;3.20;;;;;;;19.95;47.25;101485.78;6226008;28;20790;-49
2021/06/22 09:03:05;;;;;;;3.80;2.90;;;;;;;19.82;46.98;101480.09;6233195;28;20240;-53
2021/06/22 09:06:27;;;;;;;10.88;3.97;;;;;;;19.98;46.15;101473.31;6224841;28;20252;-51
2021/06/22 09:09:47;;;;;;;8.52;3.80;;;;;;;20.33;44.36;101471.09;6211184;28;20232;-53
2021/06/22 09:13:14;;;;;;;7.03;3.17;;;;;;;20.41;42.84;101487.53;6217360;28;20491;-51
2021/06/22 09:16:38;;;;;;;4.15;2.35;;;;;;;21.18;41.46;101486.19;6210981;28;20229;-51
2021/06/22 09:19:58;;;;;;;4.20;2.63;;;;;;;21.48;41.88;101477.84;6234304;28;20237;-51
2021/06/22 09:23:22;;;;;;;3.97;2.40;;;;;;;20.96;41.18;101476.50;6235173;28;20501;-51
2021/06/22 09:26:45;;;;;;;5.10;2.55;;;;;;;20.82;41.28;101482.38;6232401;28;20229;-52
2021/06/22 09:30:08;;;;;;;8.52;2.55;;;;;;;19.81;43.88;101489.81;6212519;28;20281;-54
2021/06/22 09:33:34;;;;;;;6.90;2.95;;;;;;;20.00;43.77;101478.53;6219255;28;20248;-52
2021/06/22 09:36:57;;;;;;;4.25;2.83;;;;;;;20.61;44.45;101486.75;6203683;28;20228;-51
2021/06/22 09:40:26;;;;;;;5.43;2.70;;;;;;;19.74;45.25;101483.03;6216945;28;20505;-53
2021/06/22 09:43:49;;;;;;;5.35;2.83;;;;;;;21.49;42.65;101484.88;6212619;28;20492;-51
2021/06/22 09:47:11;;;;;;;5.47;2.65;;;;;;;21.61;42.26;101479.03;6208103;28;20453;-50
2021/06/22 09:50:39;;;;;;;4.32;3.22;;;;;;;21.51;42.10;101485.66;6210799;28;20625;-52
2021/06/22 09:54:11;;;;;;;6.05;3.22;;;;;;;22.33;40.89;101488.13;6211899;28;20224;-52
2021/06/22 09:57:32;;;;;;;6.22;3.63;;;;;;;22.39;39.95;101477.19;6208332;28;20240;-54
2021/06/22 10:00:53;;;;;;;9.90;3.33;;;;;;;22.39;39.14;101482.50;6220050;28;20259;-55
2021/06/22 10:04:20;;;;;;;6.63;2.60;;;;;;;22.46;39.79;101483.09;6219863;28;20328;-55
2021/06/22 10:07:43;;;;;;;10.82;3.58;;;;;;;22.38;39.05;101481.66;6218061;28;20311;-50
2021/06/22 10:11:04;;;;;;;3.97;2.38;;;;;;;22.18;40.13;101471.13;6240781;28;20339;-52
2021/06/22 10:14:29;;;;;;;7.68;3.70;;;;;;;22.31;39.13;101477.56;6229197;28;20614;-55
2021/06/22 10:17:49;;;;;;;5.53;2.90;;;;;;;21.79;38.61;101482.63;6227219;28;20233;-55
2021/06/22 10:21:10;;;;;;;5.97;3.40;;;;;;;22.03;39.80;101496.56;6208951;28;20693;-53
2021/06/22 10:24:34;;;;;;;8.85;2.70;;;;;;;22.49;39.23;101483.81;6224725;28;20552;-49
2021/06/22 10:27:56;;;;;;;6.03;3.60;;;;;;;21.30;41.31;101483.00;6243149;28;20228;-53
2021/06/22 10:31:17;;;;;;;7.55;3.10;;;;;;;21.46;40.72;101490.31;6232026;28;20252;-52
2021/06/22 10:34:38;;;;;;;7.20;3.90;;;;;;;20.53;43.71;101503.81;6228989;28;20228;-54
2021/06/22 10:38:03;;;;;;;6.30;3.47;;;;;;;22.17;41.31;101494.13;6234032;28;20514;-53
2021/06/22 10:41:25;;;;;;;4.50;3.28;;;;;;;22.56;39.53;101502.94;6233322;28;20331;-55
2021/06/22 10:44:49;;;;;;;10.13;3.65;;;;;;;22.45;39.71;101502.59;6229218;28;20236;-53
2021/06/22 10:48:19;;;;;;;6.85;3.45;;;;;;;22.54;40.34;101513.63;6239416;28;20224;-56
2021/06/22 10:51:45;;;;;;;5.63;3.38;;;;;;;22.56;39.94;101508.25;6237496;28;20319;-53
2021/06/22 10:55:08;;;;;;;7.80;3.97;;;;;;;21.70;41.20;101497.16;6233431;28;20233;-51
2021/06/22 10:58:30;;;;;;;5.00;3.22;;;;;;;22.06;41.89;101496.41;6245340;28;20232;-54
2021/06/22 11:02:12;;;;;;;6.97;4.55;;;;;;;22.22;41.24;101501.88;6231505;28;20232;-54
2021/06/22 11:05:35;;;;;;;6.15;3.53;;;;;;;21.67;41.79;101499.94;6208123;28;20229;-52
2021/06/22 11:09:16;;;;;;;7.22;2.78;;;;;;;22.91;40.36;101498.53;6222573;28;20498;-65
2021/06/22 11:12:47;;;;;;;4.72;2.83;;;;;;;23.36;38.23;101494.50;6229270;28;20245;-66
2021/06/22 11:16:25;;;;;;;7.90;3.53;;;;;;;23.13;38.13;101500.16;6237903;28;20240;-52
2021/06/22 11:20:04;;;;;;;7.60;3.42;;;;;;;22.75;40.14;101513.50;6238576;28;20251;-54
2021/06/22 11:23:25;;;;;;;7.22;3.10;;;;;;;22.33;41.00;101509.34;6215223;28;20225;-52
2021/06/22 11:27:06;;;;;;;7.85;3.05;;;;;;;21.70;42.47;101521.03;6220964;28;20237;-55
2021/06/22 11:30:53;;;;;;;6.00;2.50;;;;;;;21.55;41.43;101519.91;6218909;28;20237;-49
2021/06/22 11:34:17;;;;;;;6.13;2.28;;;;;;;22.56;39.49;101525.00;6207083;28;20237;-52
2021/06/22 11:37:39;;;;;;;5.85;2.90;;;;;;;22.92;37.12;101518.84;6226671;28;20228;-52
2021/06/22 11:41:13;;;;;;;8.57;3.60;;;;;;;22.78;38.18;101516.03;6213833;28;20252;-54
2021/06/22 11:44:35;;;;;;;3.78;2.90;;;;;;;22.83;38.80;101526.41;6210086;28;20237;-53
2021/06/22 11:48:00;;;;;;;9.02;3.75;;;;;;;22.53;38.59;101525.19;6218106;28;20372;-53
2021/06/22 11:52:07;;;;;;;6.88;2.92;;;;;;;22.58;38.86;101522.28;6229891;28;20235;-52
2021/06/22 11:55:28;;;;;;;7.65;3.38;;;;;;;24.47;36.27;101508.97;6230322;28;20236;-51
2021/06/22 11:58:49;;;;;;;4.57;3.17;;;;;;;24.17;36.56;101507.06;6228642;28;20237;-50
2021/06/22 12:02:10;;;;;;;5.28;2.97;;;;;;;23.85;36.21;101516.81;6230850;28;20241;-53
2021/06/22 12:05:33;;;;;;;7.53;2.42;;;;;;;23.51;37.11;101511.44;6231223;28;20260;-50
2021/06/22 12:08:55;;;;;;;5.63;2.95;;;;;;;23.14;37.88;101505.38;6210316;28;20237;-53
2021/06/22 12:12:16;;;;;;;4.30;3.05;;;;;;;22.91;38.55;101510.97;6214035;28;20225;-54
2021/06/22 12:15:40;;;;;;;5.78;2.78;;;;;;;23.16;36.86;101495.53;6236305;28;20490;-53
2021/06/22 12:19:04;;;;;;;9.13;4.80;;;;;;;22.41;37.85;101509.81;6242497;28;20242;-53
2021/06/22 12:22:25;;;;;;;7.47;3.10;;;;;;;22.41;38.78;101508.06;6228725;28;20233;-54
2021/06/22 12:25:50;;;;;;;5.60;2.88;;;;;;;23.92;36.36;101486.25;6212594;28;20618;-50
2021/06/22 12:29:19;;;;;;;4.82;2.90;;;;;;;24.12;35.85;101491.34;6216535;28;20271;-55
2021/06/22 12:32:39;;;;;;;6.07;2.10;;;;;;;24.28;34.83;101490.50;6220299;28;20259;-50
2021/06/22 12:36:02;;;;;;;7.75;2.33;;;;;;;24.51;34.29;101498.06;6233565;28;20233;-52
2021/06/22 12:39:23;;;;;;;2.30;1.63;;;;;;;23.21;36.01;101505.94;6225136;28;20224;-55
2021/06/22 12:42:47;;;;;;;4.47;2.70;;;;;;;23.41;36.59;101499.56;6226506;28;20249;-51
2021/06/22 12:46:08;;;;;;;5.10;2.20;;;;;;;23.52;34.74;101502.53;6213915;28;20229;-52
2021/06/22 12:49:31;;;;;;;6.55;2.78;;;;;;;23.44;35.15;101504.75;6209328;28;20232;-51
2021/06/22 12:52:52;;;;;;;7.10;2.60;;;;;;;22.89;36.29;101503.06;6230934;28;20232;-54
2021/06/22 12:56:15;;;;;;;4.07;1.98;;;;;;;23.08;36.90;101504.84;6217946;28;20229;-53
2021/06/22 12:59:47;;;;;;;5.03;2.15;;;;;;;24.04;35.38;101511.34;6225590;28;20784;-52
2021/06/22 13:03:15;;;;;;;10.85;2.67;;;;;;;23.78;35.26;101509.13;6233830;28;20236;-50
2021/06/22 13:06:39;;;;;;;6.50;2.03;;;;;;;23.51;34.38;101506.13;6216185;28;20237;-57
2021/06/22 13:10:01;;;;;;;7.82;2.63;;;;;;;23.20;34.67;101512.16;6223512;28;20224;-53
2021/06/22 13:13:24;;;;;;;5.85;2.70;;;;;;;22.86;35.74;101524.47;6213895;28;20225;-50
2021/06/22 13:16:57;;;;;;;5.97;2.33;;;;;;;23.64;35.22;101511.66;6220773;28;20352;-51
2021/06/22 13:20:24;;;;;;;6.03;2.70;;;;;;;24.14;33.49;101525.88;6235680;28;20224;-54
2021/06/22 13:23:45;;;;;;;6.93;2.60;;;;;;;25.23;32.87;101513.50;6235514;28;20268;-53
2021/06/22 13:27:07;;;;;;;6.45;2.83;;;;;;;25.94;30.56;101518.06;6226456;28;20240;-49
2021/06/22 13:30:28;;;;;;;5.80;3.00;;;;;;;26.32;28.37;101522.75;6229057;28;20260;-52
2021/06/22 13:34:03;;;;;;;3.28;2.13;;;;;;;26.58;26.83;101518.41;6230735;28;20829;-51
2021/06/22 13:37:25;;;;;;;3.30;2.10;;;;;;;27.90;26.90;101530.00;6234413;28;20807;-53
2021/06/22 13:40:51;;;;;;;5.72;2.33;;;;;;;29.18;26.31;101521.50;6237655;28;20228;-51
2021/06/22 13:44:12;;;;;;;3.00;2.28;;;;;;;28.54;26.92;101524.50;6220216;28;20232;-53
2021/06/22 13:47:37;;;;;;;4.80;2.40;;;;;;;27.35;28.33;101533.84;6230326;28;20220;-54
2021/06/22 13:51:01;;;;;;;4.82;1.52;;;;;;;26.27;29.10;101525.72;6237745;28;20527;-56
2021/06/22 13:54:22;;;;;;;5.30;2.38;;;;;;;26.15;29.17;101520.31;6244616;28;20256;-51
2021/06/22 13:57:43;;;;;;;6.50;2.88;;;;;;;26.51;29.05;101522.44;6235726;28;20232;-51
2021/06/22 14:01:05;;;;;;;5.15;2.55;;;;;;;25.93;29.58;101527.84;6232226;28;20251;-50
2021/06/22 14:04:25;;;;;;;5.78;2.65;;;;;;;25.80;30.70;101523.34;6231681;28;20335;-55
2021/06/22 14:07:48;;;;;;;5.18;2.20;;;;;;;24.20;32.62;101522.88;6226090;28;20236;-51
2021/06/22 14:11:09;;;;;;;5.63;2.28;;;;;;;24.40;32.79;101526.22;6237153;28;20303;-52
2021/06/22 14:14:30;;;;;;;6.20;2.47;;;;;;;23.39;34.76;101523.56;6239494;28;20319;-54
2021/06/22 14:17:51;;;;;;;3.33;1.80;;;;;;;24.59;32.85;101518.94;6238484;28;20225;-54
2021/06/22 14:21:13;;;;;;;6.22;1.60;;;;;;;24.17;33.84;101515.03;6241678;28;20225;-52
2021/06/22 14:24:35;;;;;;;5.90;2.08;;;;;;;24.48;32.98;101516.84;6238433;28;20673;-51
2021/06/22 14:27:56;;;;;;;7.03;2.13;;;;;;;24.16;33.75;101519.50;6234580;28;20224;-49
2021/06/22 14:31:17;;;;;;;4.03;1.63;;;;;;;24.62;33.79;101517.91;6233998;28;20232;-55
2021/06/22 14:34:39;;;;;;;6.35;2.03;;;;;;;24.03;34.37;101523.78;6228812;28;21499;-48
2021/06/22 14:38:00;;;;;;;5.28;1.83;;;;;;;23.21;35.10;101513.91;6234548;28;20254;-54
2021/06/22 14:41:22;;;;;;;7.60;2.40;;;;;;;23.12;35.88;101520.53;6238782;28;20864;-54
2021/06/22 14:44:43;;;;;;;9.05;2.58;;;;;;;23.55;35.05;101514.78;6223673;28;20534;-54
2021/06/22 14:48:06;;;;;;;3.20;1.80;;;;;;;24.34;33.46;101511.44;6232590;28;20617;-50
2021/06/22 14:51:28;;;;;;;6.38;2.00;;;;;;;24.15;33.12;101512.47;6235799;28;20228;-54
2021/06/22 14:54:48;;;;;;;4.75;1.83;;;;;;;23.71;33.94;101513.06;6248372;28;20232;-50
2021/06/22 14:58:12;;;;;;;3.85;1.63;;;;;;;24.27;33.21;101507.41;6241608;28;20528;-49
2021/06/22 15:01:33;;;;;;;4.65;2.17;;;;;;;23.35;33.25;101527.31;6232484;28;20339;-51
2021/06/22 15:04:54;;;;;;;4.93;1.83;;;;;;;24.31;33.39;101522.25;6219660;28;20233;-47
2021/06/22 15:08:15;;;;;;;4.32;1.73;;;;;;;24.14;32.75;101525.88;6226847;28;20287;-54
2021/06/22 15:11:36;;;;;;;6.93;2.20;;;;;;;24.71;32.92;101530.69;6220601;28;20899;-49
2021/06/22 15:14:59;;;;;;;7.82;1.80;;;;;;;24.18;34.23;101522.94;6218467;28;20265;-50
2021/06/22 15:18:19;;;;;;;4.95;2.30;;;;;;;22.94;36.09;101538.22;6211355;28;20233;-49
2021/06/22 15:21:40;;;;;;;6.97;2.08;;;;;;;23.44;35.22;101541.06;6216232;28;20225;-54
2021/06/22 15:25:01;;;;;;;8.13;2.30;;;;;;;24.00;34.70;101537.28;6239244;28;20239;-50
2021/06/22 15:28:22;;;;;;;6.82;1.80;;;;;;;23.64;34.43;101548.88;6213855;28;20595;-53
2021/06/22 15:31:45;;;;;;;7.38;2.08;;;;;;;24.11;33.49;101542.84;6209924;28;20233;-50
2021/06/22 15:35:06;;;;;;;6.97;1.95;;;;;;;23.18;34.84;101540.63;6207869;28;20245;-52
2021/06/22 15:38:27;;;;;;;5.15;2.10;;;;;;;23.87;33.94;101549.50;6217575;28;20486;-52
2021/06/22 15:41:48;;;;;;;7.68;2.63;;;;;;;23.35;35.22;101547.72;6207287;28;20245;-52
2021/06/22 15:45:12;;;;;;;10.85;2.65;;;;;;;23.87;34.68;101544.19;6225727;28;20228;-53